sensor_id;sensor_type;location;lat;lon;timestamp;temperature;humidity
18998;DHT22;9632;51.018;4.284;2023-09-19T00:00:38;17.60;99.90
18998;DHT22;9632;51.018;4.284;2023-09-19T00:03:06;17.60;99.90
18998;DHT22;9632;51.018;4.284;2023-09-19T00:05:34;17.60;99.90
18998;DHT22;9632;51.018;4.284;2023-09-19T00:08:01;17.50;99.90
18998;DHT22;9632;51.018;4.284;2023-09-19T00:10:29;17.50;99.90
18998;DHT22;9632;51.018;4.284;2023-09-19T00:12:57;17.50;99.90
18998;DHT22;9632;51.018;4.284;2023-09-19T00:15:27;17.50;99.90
18998;DHT22;9632;51.018;4.284;2023-09-19T00:17:55;17.50;99.90
18998;DHT22;9632;51.018;4.284;2023-09-19T00:20:21;17.50;99.90
18998;DHT22;9632;51.018;4.284;2023-09-19T00:22:49;17.50;99.90
18998;DHT22;9632;51.018;4.284;2023-09-19T00:25:19;17.40;99.90
18998;DHT22;9632;51.018;4.284;2023-09-19T00:27:45;17.40;99.90
18998;DHT22;9632;51.018;4.284;2023-09-19T00:30:13;17.40;99.90
18998;DHT22;9632;51.018;4.284;2023-09-19T00:32:45;17.40;99.90
18998;DHT22;9632;51.018;4.284;2023-09-19T00:35:13;17.30;99.90
18998;DHT22;9632;51.018;4.284;2023-09-19T00:37:40;17.30;99.90
18998;DHT22;9632;51.018;4.284;2023-09-19T00:40:07;17.40;99.90
18998;DHT22;9632;51.018;4.284;2023-09-19T00:42:40;17.30;99.90
18998;DHT22;9632;51.018;4.284;2023-09-19T00:45:07;17.30;99.90
18998;DHT22;9632;51.018;4.284;2023-09-19T00:47:36;17.30;99.90
18998;DHT22;9632;51.018;4.284;2023-09-19T00:50:04;17.30;99.90
18998;DHT22;9632;51.018;4.284;2023-09-19T00:52:34;17.30;99.90
18998;DHT22;9632;51.018;4.284;2023-09-19T00:55:02;17.30;99.90
18998;DHT22;9632;51.018;4.284;2023-09-19T00:57:29;17.30;99.90
18998;DHT22;9632;51.018;4.284;2023-09-19T00:59:55;17.30;99.90
18998;DHT22;9632;51.018;4.284;2023-09-19T01:02:21;17.30;99.90
18998;DHT22;9632;51.018;4.284;2023-09-19T01:04:47;17.30;99.90
18998;DHT22;9632;51.018;4.284;2023-09-19T01:07:13;17.30;99.90
18998;DHT22;9632;51.018;4.284;2023-09-19T01:09:41;17.30;99.90
18998;DHT22;9632;51.018;4.284;2023-09-19T01:12:08;17.30;99.90
18998;DHT22;9632;51.018;4.284;2023-09-19T01:14:48;17.30;99.90
18998;DHT22;9632;51.018;4.284;2023-09-19T01:17:27;17.20;99.90
18998;DHT22;9632;51.018;4.284;2023-09-19T01:20:03;17.20;99.90
18998;DHT22;9632;51.018;4.284;2023-09-19T01:25:35;17.20;99.90
18998;DHT22;9632;51.018;4.284;2023-09-19T01:28:29;17.10;99.90
18998;DHT22;9632;51.018;4.284;2023-09-19T01:30:59;17.10;99.90
18998;DHT22;9632;51.018;4.284;2023-09-19T01:33:29;17.10;99.90
18998;DHT22;9632;51.018;4.284;2023-09-19T01:36:16;17.10;99.90
18998;DHT22;9632;51.018;4.284;2023-09-19T01:38:43;17.10;99.90
18998;DHT22;9632;51.018;4.284;2023-09-19T01:41:12;17.10;99.90
18998;DHT22;9632;51.018;4.284;2023-09-19T01:43:43;17.10;99.90
18998;DHT22;9632;51.018;4.284;2023-09-19T01:46:21;17.10;99.90
18998;DHT22;9632;51.018;4.284;2023-09-19T01:49:18;17.10;99.90
18998;DHT22;9632;51.018;4.284;2023-09-19T01:52:04;17.00;99.90
18998;DHT22;9632;51.018;4.284;2023-09-19T01:54:34;17.00;99.90
18998;DHT22;9632;51.018;4.284;2023-09-19T01:57:15;17.10;99.90
18998;DHT22;9632;51.018;4.284;2023-09-19T01:59:48;17.10;99.90
18998;DHT22;9632;51.018;4.284;2023-09-19T02:02:17;17.10;99.90
18998;DHT22;9632;51.018;4.284;2023-09-19T02:04:43;17.10;99.90
18998;DHT22;9632;51.018;4.284;2023-09-19T02:07:09;17.10;99.90
18998;DHT22;9632;51.018;4.284;2023-09-19T02:09:34;17.10;99.90
18998;DHT22;9632;51.018;4.284;2023-09-19T02:12:01;17.10;99.90
18998;DHT22;9632;51.018;4.284;2023-09-19T02:14:29;17.10;99.90
18998;DHT22;9632;51.018;4.284;2023-09-19T02:16:55;17.10;99.90
18998;DHT22;9632;51.018;4.284;2023-09-19T02:19:22;17.10;99.90
18998;DHT22;9632;51.018;4.284;2023-09-19T02:21:47;17.10;99.90
18998;DHT22;9632;51.018;4.284;2023-09-19T02:24:14;17.10;99.90
18998;DHT22;9632;51.018;4.284;2023-09-19T02:26:41;17.10;99.90
18998;DHT22;9632;51.018;4.284;2023-09-19T02:29:06;17.10;99.90
18998;DHT22;9632;51.018;4.284;2023-09-19T02:31:32;17.10;99.90
18998;DHT22;9632;51.018;4.284;2023-09-19T02:33:57;17.00;99.90
18998;DHT22;9632;51.018;4.284;2023-09-19T02:36:25;17.00;99.90
18998;DHT22;9632;51.018;4.284;2023-09-19T02:38:51;17.00;99.90
18998;DHT22;9632;51.018;4.284;2023-09-19T02:41:17;17.10;99.90
18998;DHT22;9632;51.018;4.284;2023-09-19T02:43:42;17.10;99.90
18998;DHT22;9632;51.018;4.284;2023-09-19T02:46:08;17.10;99.90
18998;DHT22;9632;51.018;4.284;2023-09-19T02:48:34;17.10;99.90
18998;DHT22;9632;51.018;4.284;2023-09-19T02:51:01;17.00;99.90
18998;DHT22;9632;51.018;4.284;2023-09-19T02:53:27;16.90;99.90
18998;DHT22;9632;51.018;4.284;2023-09-19T02:55:52;16.90;99.90
18998;DHT22;9632;51.018;4.284;2023-09-19T02:58:18;16.90;99.90
18998;DHT22;9632;51.018;4.284;2023-09-19T03:00:45;16.90;99.90
18998;DHT22;9632;51.018;4.284;2023-09-19T03:03:15;16.90;99.90
18998;DHT22;9632;51.018;4.284;2023-09-19T03:05:44;16.90;99.90
18998;DHT22;9632;51.018;4.284;2023-09-19T03:08:16;16.90;99.90
18998;DHT22;9632;51.018;4.284;2023-09-19T03:10:42;16.90;99.90
18998;DHT22;9632;51.018;4.284;2023-09-19T03:13:08;16.90;99.90
18998;DHT22;9632;51.018;4.284;2023-09-19T03:15:35;16.90;99.90
18998;DHT22;9632;51.018;4.284;2023-09-19T03:18:04;16.90;99.90
18998;DHT22;9632;51.018;4.284;2023-09-19T03:20:30;16.90;99.90
18998;DHT22;9632;51.018;4.284;2023-09-19T03:22:56;17.00;99.90
18998;DHT22;9632;51.018;4.284;2023-09-19T03:25:23;16.90;99.90
18998;DHT22;9632;51.018;4.284;2023-09-19T03:27:49;16.90;99.90
18998;DHT22;9632;51.018;4.284;2023-09-19T03:30:15;16.90;99.90
18998;DHT22;9632;51.018;4.284;2023-09-19T03:32:48;16.90;99.90
18998;DHT22;9632;51.018;4.284;2023-09-19T03:35:15;16.90;99.90
18998;DHT22;9632;51.018;4.284;2023-09-19T03:37:42;16.90;99.90
18998;DHT22;9632;51.018;4.284;2023-09-19T03:40:09;17.00;99.90
18998;DHT22;9632;51.018;4.284;2023-09-19T03:42:41;16.90;99.90
18998;DHT22;9632;51.018;4.284;2023-09-19T03:45:08;16.90;99.90
18998;DHT22;9632;51.018;4.284;2023-09-19T03:47:38;17.00;99.90
18998;DHT22;9632;51.018;4.284;2023-09-19T03:50:05;17.00;99.90
18998;DHT22;9632;51.018;4.284;2023-09-19T03:52:30;16.90;99.90
18998;DHT22;9632;51.018;4.284;2023-09-19T03:54:56;16.90;99.90
18998;DHT22;9632;51.018;4.284;2023-09-19T03:57:21;16.90;99.90
18998;DHT22;9632;51.018;4.284;2023-09-19T03:59:47;16.80;99.90
18998;DHT22;9632;51.018;4.284;2023-09-19T04:02:13;16.80;99.90
18998;DHT22;9632;51.018;4.284;2023-09-19T04:04:48;16.80;99.90
18998;DHT22;9632;51.018;4.284;2023-09-19T04:07:13;16.80;99.90
18998;DHT22;9632;51.018;4.284;2023-09-19T04:09:39;16.80;99.90
18998;DHT22;9632;51.018;4.284;2023-09-19T04:12:05;16.80;99.90
18998;DHT22;9632;51.018;4.284;2023-09-19T04:14:31;16.70;99.90
18998;DHT22;9632;51.018;4.284;2023-09-19T04:16:56;16.70;99.90
18998;DHT22;9632;51.018;4.284;2023-09-19T04:19:22;16.70;99.90
18998;DHT22;9632;51.018;4.284;2023-09-19T04:21:47;16.70;99.90
18998;DHT22;9632;51.018;4.284;2023-09-19T04:24:13;16.70;99.90
18998;DHT22;9632;51.018;4.284;2023-09-19T04:26:39;16.70;99.90
18998;DHT22;9632;51.018;4.284;2023-09-19T04:29:04;16.60;99.90
18998;DHT22;9632;51.018;4.284;2023-09-19T04:31:31;16.60;99.90
18998;DHT22;9632;51.018;4.284;2023-09-19T04:33:57;16.60;99.90
18998;DHT22;9632;51.018;4.284;2023-09-19T04:36:24;16.60;99.90
18998;DHT22;9632;51.018;4.284;2023-09-19T04:38:50;16.60;99.90
18998;DHT22;9632;51.018;4.284;2023-09-19T04:41:15;16.60;99.90
18998;DHT22;9632;51.018;4.284;2023-09-19T04:43:41;16.60;99.90
18998;DHT22;9632;51.018;4.284;2023-09-19T04:46:07;16.50;99.90
18998;DHT22;9632;51.018;4.284;2023-09-19T04:48:33;16.50;99.90
18998;DHT22;9632;51.018;4.284;2023-09-19T04:51:00;16.50;99.90
18998;DHT22;9632;51.018;4.284;2023-09-19T04:53:26;16.40;99.90
18998;DHT22;9632;51.018;4.284;2023-09-19T04:55:53;16.40;99.90
18998;DHT22;9632;51.018;4.284;2023-09-19T04:58:21;16.40;99.90
18998;DHT22;9632;51.018;4.284;2023-09-19T05:00:46;16.40;99.90
18998;DHT22;9632;51.018;4.284;2023-09-19T05:03:12;16.40;99.90
18998;DHT22;9632;51.018;4.284;2023-09-19T05:05:38;16.40;99.90
18998;DHT22;9632;51.018;4.284;2023-09-19T05:08:04;16.40;99.90
18998;DHT22;9632;51.018;4.284;2023-09-19T05:10:32;16.40;99.90
18998;DHT22;9632;51.018;4.284;2023-09-19T05:12:57;16.30;99.90
18998;DHT22;9632;51.018;4.284;2023-09-19T05:15:23;16.30;99.90
18998;DHT22;9632;51.018;4.284;2023-09-19T05:17:50;16.30;99.90
18998;DHT22;9632;51.018;4.284;2023-09-19T05:20:16;16.30;99.90
18998;DHT22;9632;51.018;4.284;2023-09-19T05:22:44;16.30;99.90
18998;DHT22;9632;51.018;4.284;2023-09-19T05:25:11;16.30;99.90
18998;DHT22;9632;51.018;4.284;2023-09-19T05:27:42;16.30;99.90
18998;DHT22;9632;51.018;4.284;2023-09-19T05:30:08;16.20;99.90
18998;DHT22;9632;51.018;4.284;2023-09-19T05:32:34;16.20;99.90
18998;DHT22;9632;51.018;4.284;2023-09-19T05:34:59;16.20;99.90
18998;DHT22;9632;51.018;4.284;2023-09-19T05:37:25;16.10;99.90
18998;DHT22;9632;51.018;4.284;2023-09-19T05:39:51;16.10;99.90
18998;DHT22;9632;51.018;4.284;2023-09-19T05:42:19;16.20;99.90
18998;DHT22;9632;51.018;4.284;2023-09-19T05:44:44;16.20;99.90
18998;DHT22;9632;51.018;4.284;2023-09-19T05:47:10;16.10;99.90
18998;DHT22;9632;51.018;4.284;2023-09-19T05:49:36;16.10;99.90
18998;DHT22;9632;51.018;4.284;2023-09-19T05:52:07;16.10;99.90
18998;DHT22;9632;51.018;4.284;2023-09-19T05:54:33;16.20;99.90
18998;DHT22;9632;51.018;4.284;2023-09-19T05:57:03;16.20;99.90
18998;DHT22;9632;51.018;4.284;2023-09-19T05:59:28;16.30;99.90
18998;DHT22;9632;51.018;4.284;2023-09-19T06:01:55;16.30;99.90
18998;DHT22;9632;51.018;4.284;2023-09-19T06:04:20;16.30;99.90
18998;DHT22;9632;51.018;4.284;2023-09-19T06:06:47;16.30;99.90
18998;DHT22;9632;51.018;4.284;2023-09-19T06:09:14;16.40;99.90
18998;DHT22;9632;51.018;4.284;2023-09-19T06:11:42;16.40;99.90
18998;DHT22;9632;51.018;4.284;2023-09-19T06:14:07;16.40;99.90
18998;DHT22;9632;51.018;4.284;2023-09-19T06:16:33;16.40;99.90
18998;DHT22;9632;51.018;4.284;2023-09-19T06:18:58;16.50;99.90
18998;DHT22;9632;51.018;4.284;2023-09-19T06:21:26;16.50;99.90
18998;DHT22;9632;51.018;4.284;2023-09-19T06:23:52;16.50;99.90
18998;DHT22;9632;51.018;4.284;2023-09-19T06:26:18;16.50;99.90
18998;DHT22;9632;51.018;4.284;2023-09-19T06:28:44;16.60;99.90
18998;DHT22;9632;51.018;4.284;2023-09-19T06:31:10;16.60;99.90
18998;DHT22;9632;51.018;4.284;2023-09-19T06:33:36;16.60;99.90
18998;DHT22;9632;51.018;4.284;2023-09-19T06:36:05;16.60;99.90
18998;DHT22;9632;51.018;4.284;2023-09-19T06:38:30;16.60;99.90
18998;DHT22;9632;51.018;4.284;2023-09-19T06:40:58;16.60;99.90
18998;DHT22;9632;51.018;4.284;2023-09-19T06:43:24;16.60;99.90
18998;DHT22;9632;51.018;4.284;2023-09-19T06:45:49;16.60;99.90
18998;DHT22;9632;51.018;4.284;2023-09-19T06:48:17;16.70;99.90
18998;DHT22;9632;51.018;4.284;2023-09-19T06:50:43;16.80;99.90
18998;DHT22;9632;51.018;4.284;2023-09-19T06:53:10;16.80;99.90
18998;DHT22;9632;51.018;4.284;2023-09-19T06:55:36;16.80;99.90
18998;DHT22;9632;51.018;4.284;2023-09-19T06:58:02;16.90;99.90
18998;DHT22;9632;51.018;4.284;2023-09-19T07:00:28;16.90;99.90
18998;DHT22;9632;51.018;4.284;2023-09-19T07:03:01;16.90;99.90
18998;DHT22;9632;51.018;4.284;2023-09-19T07:05:30;17.00;99.90
18998;DHT22;9632;51.018;4.284;2023-09-19T07:07:57;17.00;99.90
18998;DHT22;9632;51.018;4.284;2023-09-19T07:10:27;17.00;99.90
18998;DHT22;9632;51.018;4.284;2023-09-19T07:13:01;17.00;99.90
18998;DHT22;9632;51.018;4.284;2023-09-19T07:15:27;17.10;99.90
18998;DHT22;9632;51.018;4.284;2023-09-19T07:17:54;17.10;99.90
18998;DHT22;9632;51.018;4.284;2023-09-19T07:20:20;17.20;99.90
18998;DHT22;9632;51.018;4.284;2023-09-19T07:22:46;17.20;99.90
18998;DHT22;9632;51.018;4.284;2023-09-19T07:25:13;17.30;99.90
18998;DHT22;9632;51.018;4.284;2023-09-19T07:27:41;17.40;99.90
18998;DHT22;9632;51.018;4.284;2023-09-19T07:30:07;17.40;99.90
18998;DHT22;9632;51.018;4.284;2023-09-19T07:32:33;17.50;99.90
18998;DHT22;9632;51.018;4.284;2023-09-19T07:35:02;17.60;99.90
18998;DHT22;9632;51.018;4.284;2023-09-19T07:37:29;17.70;99.90
18998;DHT22;9632;51.018;4.284;2023-09-19T07:39:56;17.80;99.90
18998;DHT22;9632;51.018;4.284;2023-09-19T07:42:22;17.90;99.90
18998;DHT22;9632;51.018;4.284;2023-09-19T07:44:47;18.00;99.90
18998;DHT22;9632;51.018;4.284;2023-09-19T07:47:16;18.00;99.90
18998;DHT22;9632;51.018;4.284;2023-09-19T07:49:42;18.10;99.90
18998;DHT22;9632;51.018;4.284;2023-09-19T07:52:08;18.20;99.90
18998;DHT22;9632;51.018;4.284;2023-09-19T07:54:35;18.30;99.90
18998;DHT22;9632;51.018;4.284;2023-09-19T07:57:01;18.40;99.90
18998;DHT22;9632;51.018;4.284;2023-09-19T07:59:27;18.40;99.90
18998;DHT22;9632;51.018;4.284;2023-09-19T08:01:53;18.50;99.90
18998;DHT22;9632;51.018;4.284;2023-09-19T08:04:19;18.50;99.90
18998;DHT22;9632;51.018;4.284;2023-09-19T08:06:45;18.60;99.90
18998;DHT22;9632;51.018;4.284;2023-09-19T08:09:11;18.60;99.90
18998;DHT22;9632;51.018;4.284;2023-09-19T08:11:37;18.70;99.90
18998;DHT22;9632;51.018;4.284;2023-09-19T08:14:04;18.70;99.90
18998;DHT22;9632;51.018;4.284;2023-09-19T08:16:33;18.80;99.90
18998;DHT22;9632;51.018;4.284;2023-09-19T08:18:58;18.80;99.90
18998;DHT22;9632;51.018;4.284;2023-09-19T08:21:24;18.80;99.90
18998;DHT22;9632;51.018;4.284;2023-09-19T08:23:51;18.90;99.90
18998;DHT22;9632;51.018;4.284;2023-09-19T08:26:16;18.90;99.90
18998;DHT22;9632;51.018;4.284;2023-09-19T08:28:42;18.90;99.90
18998;DHT22;9632;51.018;4.284;2023-09-19T08:31:08;18.90;99.90
18998;DHT22;9632;51.018;4.284;2023-09-19T08:33:37;19.00;99.90
18998;DHT22;9632;51.018;4.284;2023-09-19T08:36:04;19.00;99.90
18998;DHT22;9632;51.018;4.284;2023-09-19T08:38:34;19.10;99.90
18998;DHT22;9632;51.018;4.284;2023-09-19T08:41:06;19.10;99.90
18998;DHT22;9632;51.018;4.284;2023-09-19T08:43:33;19.20;99.90
18998;DHT22;9632;51.018;4.284;2023-09-19T08:48:31;19.40;99.90
18998;DHT22;9632;51.018;4.284;2023-09-19T08:51:06;19.40;99.90
18998;DHT22;9632;51.018;4.284;2023-09-19T08:53:46;19.40;99.90
18998;DHT22;9632;51.018;4.284;2023-09-19T08:56:17;19.60;99.90
18998;DHT22;9632;51.018;4.284;2023-09-19T08:58:52;19.70;99.90
18998;DHT22;9632;51.018;4.284;2023-09-19T09:01:20;19.80;99.90
18998;DHT22;9632;51.018;4.284;2023-09-19T09:03:52;19.80;99.90
18998;DHT22;9632;51.018;4.284;2023-09-19T09:06:20;19.80;99.90
18998;DHT22;9632;51.018;4.284;2023-09-19T09:08:46;19.80;99.90
18998;DHT22;9632;51.018;4.284;2023-09-19T09:11:13;19.80;99.90
18998;DHT22;9632;51.018;4.284;2023-09-19T09:13:41;19.80;99.90
18998;DHT22;9632;51.018;4.284;2023-09-19T09:16:08;19.90;99.90
18998;DHT22;9632;51.018;4.284;2023-09-19T09:18:35;19.90;99.90
18998;DHT22;9632;51.018;4.284;2023-09-19T09:21:01;20.00;99.90
18998;DHT22;9632;51.018;4.284;2023-09-19T09:23:27;19.90;99.90
18998;DHT22;9632;51.018;4.284;2023-09-19T09:25:58;20.00;99.90
18998;DHT22;9632;51.018;4.284;2023-09-19T09:28:33;20.00;99.90
18998;DHT22;9632;51.018;4.284;2023-09-19T09:31:00;20.10;99.90
18998;DHT22;9632;51.018;4.284;2023-09-19T09:33:34;20.00;99.90
18998;DHT22;9632;51.018;4.284;2023-09-19T09:36:01;20.10;99.90
18998;DHT22;9632;51.018;4.284;2023-09-19T09:38:29;20.20;99.90
18998;DHT22;9632;51.018;4.284;2023-09-19T09:40:59;20.10;99.90
18998;DHT22;9632;51.018;4.284;2023-09-19T09:43:36;20.10;99.90
18998;DHT22;9632;51.018;4.284;2023-09-19T09:48:45;20.10;99.90
18998;DHT22;9632;51.018;4.284;2023-09-19T09:51:31;20.00;99.90
18998;DHT22;9632;51.018;4.284;2023-09-19T09:54:13;20.00;99.90
18998;DHT22;9632;51.018;4.284;2023-09-19T09:57:00;20.10;99.90
18998;DHT22;9632;51.018;4.284;2023-09-19T09:59:49;20.10;99.90
18998;DHT22;9632;51.018;4.284;2023-09-19T10:02:17;20.20;99.90
18998;DHT22;9632;51.018;4.284;2023-09-19T10:04:50;20.30;99.90
18998;DHT22;9632;51.018;4.284;2023-09-19T10:07:49;20.30;99.90
18998;DHT22;9632;51.018;4.284;2023-09-19T10:10:40;20.40;99.90
18998;DHT22;9632;51.018;4.284;2023-09-19T10:13:07;20.50;99.90
18998;DHT22;9632;51.018;4.284;2023-09-19T10:15:34;20.50;99.90
18998;DHT22;9632;51.018;4.284;2023-09-19T10:18:04;20.50;99.90
18998;DHT22;9632;51.018;4.284;2023-09-19T10:20:30;20.60;99.90
18998;DHT22;9632;51.018;4.284;2023-09-19T10:23:03;20.70;99.90
18998;DHT22;9632;51.018;4.284;2023-09-19T10:25:37;20.80;99.90
18998;DHT22;9632;51.018;4.284;2023-09-19T10:28:03;21.00;99.90
18998;DHT22;9632;51.018;4.284;2023-09-19T10:30:33;21.00;99.90
18998;DHT22;9632;51.018;4.284;2023-09-19T10:33:03;21.10;99.90
18998;DHT22;9632;51.018;4.284;2023-09-19T10:35:30;21.10;99.90
18998;DHT22;9632;51.018;4.284;2023-09-19T10:38:00;21.20;99.90
18998;DHT22;9632;51.018;4.284;2023-09-19T10:40:27;21.30;99.90
18998;DHT22;9632;51.018;4.284;2023-09-19T10:43:05;21.40;99.90
18998;DHT22;9632;51.018;4.284;2023-09-19T10:45:33;21.50;99.90
18998;DHT22;9632;51.018;4.284;2023-09-19T10:48:01;21.40;99.90
18998;DHT22;9632;51.018;4.284;2023-09-19T10:50:33;21.30;99.90
18998;DHT22;9632;51.018;4.284;2023-09-19T10:53:04;21.50;99.90
18998;DHT22;9632;51.018;4.284;2023-09-19T10:55:33;21.50;99.90
18998;DHT22;9632;51.018;4.284;2023-09-19T10:58:01;21.60;99.90
18998;DHT22;9632;51.018;4.284;2023-09-19T11:00:30;21.60;99.90
18998;DHT22;9632;51.018;4.284;2023-09-19T11:05:41;21.60;99.90
18998;DHT22;9632;51.018;4.284;2023-09-19T11:08:11;21.50;99.90
18998;DHT22;9632;51.018;4.284;2023-09-19T11:10:50;21.70;99.90
18998;DHT22;9632;51.018;4.284;2023-09-19T11:13:31;21.80;99.90
18998;DHT22;9632;51.018;4.284;2023-09-19T11:26:48;21.70;99.90
18998;DHT22;9632;51.018;4.284;2023-09-19T11:29:32;21.70;99.90
18998;DHT22;9632;51.018;4.284;2023-09-19T11:32:01;21.70;99.90
18998;DHT22;9632;51.018;4.284;2023-09-19T11:34:42;21.80;99.90
18998;DHT22;9632;51.018;4.284;2023-09-19T11:39:37;21.80;99.90
18998;DHT22;9632;51.018;4.284;2023-09-19T11:42:41;21.90;99.90
18998;DHT22;9632;51.018;4.284;2023-09-19T11:45:07;21.90;99.90
18998;DHT22;9632;51.018;4.284;2023-09-19T11:47:55;21.80;99.90
18998;DHT22;9632;51.018;4.284;2023-09-19T11:50:23;21.80;99.90
18998;DHT22;9632;51.018;4.284;2023-09-19T11:52:51;21.80;99.90
18998;DHT22;9632;51.018;4.284;2023-09-19T11:55:17;21.70;99.90
18998;DHT22;9632;51.018;4.284;2023-09-19T11:57:50;21.80;99.90
18998;DHT22;9632;51.018;4.284;2023-09-19T12:00:20;21.70;99.90
18998;DHT22;9632;51.018;4.284;2023-09-19T12:02:47;21.60;99.90
18998;DHT22;9632;51.018;4.284;2023-09-19T12:05:16;21.60;99.90
18998;DHT22;9632;51.018;4.284;2023-09-19T12:07:43;21.60;99.90
18998;DHT22;9632;51.018;4.284;2023-09-19T12:10:13;21.60;99.90
18998;DHT22;9632;51.018;4.284;2023-09-19T12:12:47;21.60;99.90
18998;DHT22;9632;51.018;4.284;2023-09-19T12:15:13;21.70;99.90
18998;DHT22;9632;51.018;4.284;2023-09-19T12:17:41;21.70;99.90
18998;DHT22;9632;51.018;4.284;2023-09-19T12:20:10;21.80;99.90
18998;DHT22;9632;51.018;4.284;2023-09-19T12:22:42;21.90;99.90
18998;DHT22;9632;51.018;4.284;2023-09-19T12:25:08;21.80;99.90
18998;DHT22;9632;51.018;4.284;2023-09-19T12:27:49;21.80;99.90
18998;DHT22;9632;51.018;4.284;2023-09-19T12:30:27;21.80;99.90
18998;DHT22;9632;51.018;4.284;2023-09-19T12:32:54;21.80;99.90
18998;DHT22;9632;51.018;4.284;2023-09-19T12:35:33;21.70;99.90
18998;DHT22;9632;51.018;4.284;2023-09-19T12:38:02;21.80;99.90
18998;DHT22;9632;51.018;4.284;2023-09-19T12:40:29;21.80;99.90
18998;DHT22;9632;51.018;4.284;2023-09-19T12:42:59;21.80;99.90
18998;DHT22;9632;51.018;4.284;2023-09-19T12:45:25;21.80;99.90
18998;DHT22;9632;51.018;4.284;2023-09-19T12:51:07;21.80;99.90
18998;DHT22;9632;51.018;4.284;2023-09-19T12:53:42;21.80;99.90
18998;DHT22;9632;51.018;4.284;2023-09-19T12:56:10;21.80;99.90
18998;DHT22;9632;51.018;4.284;2023-09-19T13:01:22;21.80;99.90
18998;DHT22;9632;51.018;4.284;2023-09-19T13:06:38;21.80;99.90
18998;DHT22;9632;51.018;4.284;2023-09-19T13:09:10;21.80;99.90
18998;DHT22;9632;51.018;4.284;2023-09-19T13:11:37;21.90;99.90
18998;DHT22;9632;51.018;4.284;2023-09-19T13:17:06;21.90;99.90
18998;DHT22;9632;51.018;4.284;2023-09-19T13:19:51;21.80;99.90
18998;DHT22;9632;51.018;4.284;2023-09-19T13:22:42;21.80;99.90
18998;DHT22;9632;51.018;4.284;2023-09-19T13:25:14;21.90;99.90
18998;DHT22;9632;51.018;4.284;2023-09-19T13:27:44;21.90;99.90
18998;DHT22;9632;51.018;4.284;2023-09-19T13:30:14;22.00;99.90
18998;DHT22;9632;51.018;4.284;2023-09-19T13:32:40;21.90;99.90
18998;DHT22;9632;51.018;4.284;2023-09-19T13:35:07;21.90;99.90
18998;DHT22;9632;51.018;4.284;2023-09-19T13:37:38;21.90;99.90
18998;DHT22;9632;51.018;4.284;2023-09-19T13:40:11;21.90;99.90
18998;DHT22;9632;51.018;4.284;2023-09-19T13:42:37;22.00;99.90
18998;DHT22;9632;51.018;4.284;2023-09-19T13:45:04;22.00;99.90
18998;DHT22;9632;51.018;4.284;2023-09-19T13:47:30;22.10;99.90
18998;DHT22;9632;51.018;4.284;2023-09-19T13:49:56;22.10;99.90
18998;DHT22;9632;51.018;4.284;2023-09-19T13:52:22;22.10;99.90
18998;DHT22;9632;51.018;4.284;2023-09-19T13:54:50;22.10;99.90
18998;DHT22;9632;51.018;4.284;2023-09-19T13:57:16;22.20;99.90
18998;DHT22;9632;51.018;4.284;2023-09-19T13:59:42;22.20;99.90
18998;DHT22;9632;51.018;4.284;2023-09-19T14:02:08;22.30;99.90
18998;DHT22;9632;51.018;4.284;2023-09-19T14:04:33;22.20;99.90
18998;DHT22;9632;51.018;4.284;2023-09-19T14:07:02;22.20;99.90
18998;DHT22;9632;51.018;4.284;2023-09-19T14:09:29;22.20;99.90
18998;DHT22;9632;51.018;4.284;2023-09-19T14:11:54;22.10;99.90
18998;DHT22;9632;51.018;4.284;2023-09-19T14:14:20;22.00;99.90
18998;DHT22;9632;51.018;4.284;2023-09-19T14:16:47;22.00;99.90
18998;DHT22;9632;51.018;4.284;2023-09-19T14:19:13;22.00;99.90
18998;DHT22;9632;51.018;4.284;2023-09-19T14:21:40;22.10;99.90
18998;DHT22;9632;51.018;4.284;2023-09-19T14:24:06;22.10;99.90
18998;DHT22;9632;51.018;4.284;2023-09-19T14:26:38;22.10;99.90
18998;DHT22;9632;51.018;4.284;2023-09-19T14:29:03;22.10;99.90
18998;DHT22;9632;51.018;4.284;2023-09-19T14:31:29;22.10;99.90
18998;DHT22;9632;51.018;4.284;2023-09-19T14:33:55;22.10;99.90
18998;DHT22;9632;51.018;4.284;2023-09-19T14:36:25;22.00;99.90
18998;DHT22;9632;51.018;4.284;2023-09-19T14:38:54;22.00;99.90
18998;DHT22;9632;51.018;4.284;2023-09-19T14:41:20;22.00;99.90
18998;DHT22;9632;51.018;4.284;2023-09-19T14:43:47;21.90;99.90
18998;DHT22;9632;51.018;4.284;2023-09-19T14:46:12;21.80;99.90
18998;DHT22;9632;51.018;4.284;2023-09-19T14:48:39;21.80;99.90
18998;DHT22;9632;51.018;4.284;2023-09-19T14:51:06;21.80;99.90
18998;DHT22;9632;51.018;4.284;2023-09-19T14:53:34;21.80;99.90
18998;DHT22;9632;51.018;4.284;2023-09-19T14:56:01;21.70;99.90
18998;DHT22;9632;51.018;4.284;2023-09-19T14:58:30;21.70;99.90
18998;DHT22;9632;51.018;4.284;2023-09-19T15:01:10;21.70;99.90
18998;DHT22;9632;51.018;4.284;2023-09-19T15:03:36;21.70;99.90
18998;DHT22;9632;51.018;4.284;2023-09-19T15:06:06;21.70;99.90
18998;DHT22;9632;51.018;4.284;2023-09-19T15:08:33;21.60;99.90
18998;DHT22;9632;51.018;4.284;2023-09-19T15:11:07;21.60;99.90
18998;DHT22;9632;51.018;4.284;2023-09-19T15:13:33;21.60;99.90
18998;DHT22;9632;51.018;4.284;2023-09-19T15:16:00;21.50;99.90
18998;DHT22;9632;51.018;4.284;2023-09-19T15:18:28;21.50;99.90
18998;DHT22;9632;51.018;4.284;2023-09-19T15:20:55;21.50;99.90
18998;DHT22;9632;51.018;4.284;2023-09-19T15:23:21;21.50;99.90
18998;DHT22;9632;51.018;4.284;2023-09-19T15:25:50;21.40;99.90
18998;DHT22;9632;51.018;4.284;2023-09-19T15:28:16;21.40;99.90
18998;DHT22;9632;51.018;4.284;2023-09-19T15:30:42;21.50;99.90
18998;DHT22;9632;51.018;4.284;2023-09-19T15:33:07;21.50;99.90
18998;DHT22;9632;51.018;4.284;2023-09-19T15:35:36;21.40;99.90
18998;DHT22;9632;51.018;4.284;2023-09-19T15:38:03;21.40;99.90
18998;DHT22;9632;51.018;4.284;2023-09-19T15:40:29;21.40;99.90
18998;DHT22;9632;51.018;4.284;2023-09-19T15:42:55;21.40;99.90
18998;DHT22;9632;51.018;4.284;2023-09-19T15:45:22;21.40;99.90
18998;DHT22;9632;51.018;4.284;2023-09-19T15:47:48;21.30;99.90
18998;DHT22;9632;51.018;4.284;2023-09-19T15:50:14;21.30;99.90
18998;DHT22;9632;51.018;4.284;2023-09-19T15:52:43;21.40;99.90
18998;DHT22;9632;51.018;4.284;2023-09-19T15:55:09;21.30;99.90
18998;DHT22;9632;51.018;4.284;2023-09-19T15:57:38;21.30;99.90
18998;DHT22;9632;51.018;4.284;2023-09-19T16:00:05;21.30;99.90
18998;DHT22;9632;51.018;4.284;2023-09-19T16:02:38;21.20;99.90
18998;DHT22;9632;51.018;4.284;2023-09-19T16:05:03;21.20;99.90
18998;DHT22;9632;51.018;4.284;2023-09-19T16:07:31;21.20;99.90
18998;DHT22;9632;51.018;4.284;2023-09-19T16:09:58;21.10;99.90
18998;DHT22;9632;51.018;4.284;2023-09-19T16:12:25;21.10;99.90
18998;DHT22;9632;51.018;4.284;2023-09-19T16:14:51;21.10;99.90
18998;DHT22;9632;51.018;4.284;2023-09-19T16:17:17;21.10;99.90
18998;DHT22;9632;51.018;4.284;2023-09-19T16:19:43;21.00;99.90
18998;DHT22;9632;51.018;4.284;2023-09-19T16:22:09;21.10;99.90
18998;DHT22;9632;51.018;4.284;2023-09-19T16:24:35;21.10;99.90
18998;DHT22;9632;51.018;4.284;2023-09-19T16:27:00;21.10;99.90
18998;DHT22;9632;51.018;4.284;2023-09-19T16:29:26;21.10;99.90